LexMAWeather

Lexington, Massachusetts, USA

70°F
6/22/2018 6:38pm 
  • Lexington Conditions: Mostly cloudy
  • Temperature: 70.0°F / 21.1°CColder 0.9°F than last hour.
  • Dew Point: 57.7°F 
  • Humidity: 65%Increased 2.0% since last hour.
  • Wind: N Calm, 10-min avg: 1 mph, gust: 3 mph
  • Barometer: 29.99 in Steady
  • Visibility: 10 miles
  • Rain Today: 0.00 in
  •   

Nearby Reports - Official Weather Stations - Current Conditions

Data from the National Weather Service

KBED - Bedford, MA


Distance from station: WNW 4mi, 6km

Updated Fri Jun 22, 2018 5:56pm EDT

Mostly cloudy

Mostly cloudy

Wind from ESE

Wind:

ESE 10 mph , 17 km/h

Temperature: 72°F (22°C)

Dew Point: 55°F (13°C)

Humidity: 57%

Barometer: 30.01 in (1016.3 hPa)

Clouds: Mostly cloudy

Visibility: 10 miles (16 km)

Cloud details: Partly cloudy 9000 ft
Mostly cloudy 20000 ft


2018/06/22 21:56 KBED 222156Z 11009KT 10SM SCT090 BKN200 22/13 A3001 RMK AO2 SLP176 T02220128

KBOS - Boston, MA


Distance from station: ESE 12mi, 20km

Updated Fri Jun 22, 2018 5:54pm EDT

Mostly cloudy

Mostly cloudy

Wind from ESE

Wind:

ESE 12 mph , 19 km/h

Temperature: 70°F (21°C)

Dew Point: 54°F (12°C)

Humidity: 57%

Barometer: 30.03 in (1016.9 hPa)

Clouds: Mostly cloudy

Visibility: 10 miles (16 km)

Cloud details: Few Clouds 4000 ft
Partly cloudy 13000 ft
Mostly cloudy 21000 ft


2018/06/22 21:54 KBOS 222154Z 12010KT 10SM FEW040 SCT130 BKN210 21/12 A3003 RMK AO2 SLP170 T02060122

KOWD - Norwood, MA


Distance from station: SSE 18mi, 29km

Updated Fri Jun 22, 2018 5:53pm EDT

Clear

Clear

Wind from SSE

Wind:

SSE 12 mph , 19 km/h

Temperature: 73°F (23°C)

Dew Point: 54°F (12°C)

Humidity: 50%

Barometer: 30.02 in (1016.6 hPa)

Clouds: Clear

Visibility: 10 miles (16 km)


2018/06/22 21:53 KOWD 222153Z 16010KT 10SM CLR 23/12 A3002 RMK AO2 SLP166 T02330122

KBVY - Beverly, MA


Distance from station: ENE 19mi, 31km

Updated Fri Jun 22, 2018 5:53pm EDT

Clear

Clear

Wind from SE

Wind:

SE 9 mph , 15 km/h

Temperature: 66°F (19°C)

Dew Point: 54°F (12°C)

Humidity: 64%

Barometer: 30.04 in (1017.3 hPa)

Clouds: Clear

Visibility: 10 miles (16 km)


2018/06/22 21:53 KBVY 222153Z 14008KT 10SM CLR 19/12 A3004 RMK AO2 SLP167 T01890117

KLWM - Lawrence, MA


Distance from station: NNE 20mi, 32km

Updated Fri Jun 22, 2018 5:54pm EDT

Clear

Clear

Wind from ESE

Wind:

ESE 7 mph , 11 km/h

Temperature: 73°F (23°C)

Dew Point: 52°F (11°C)

Humidity: 47%

Barometer: 30.05 in (1017.6 hPa)

Clouds: Clear

Visibility: 10 miles (16 km)


2018/06/22 21:54 KLWM 222154Z 12006KT 10SM CLR 23/11 A3005 RMK AO2 SLP175 T02280106

KFIT - Fitchburg, MA


Distance from station: WNW 27mi, 44km

Updated Fri Jun 22, 2018 5:52pm EDT

Clear

Clear

Wind from ESE

Wind:

ESE 9 mph , 15 km/h

Temperature: 73°F (23°C)

Dew Point: 57°F (14°C)

Humidity: 57%

Barometer: 30.02 in (1016.6 hPa)

Clouds: Clear

Visibility: 10 miles (16 km)


2018/06/22 21:52 KFIT 222152Z AUTO 11008KT 10SM CLR 23/14 A3002 RMK AO2 SLP165 T02330144

KASH - Nashua/Boire Fld, NH


Distance from station: NNW 28mi, 44km

Updated Fri Jun 22, 2018 5:56pm EDT

Few Clouds

Few Clouds

Wind from SE

Wind:

SE 13 mph , 20 km/h,
Gust: 18 mph , 30 km/h

Temperature: 75°F (24°C)

Dew Point: 52°F (11°C)

Humidity: 44%

Barometer: 30.02 in (1016.6 hPa)

Clouds: Few Clouds

Visibility: 10 miles (16 km)

Cloud details: Few Clouds 5000 ft


2018/06/22 21:56 KASH 222156Z 13011G16KT 10SM FEW050 24/11 A3002 RMK AO2 SLP176 T02390106

KORH - Worcester, MA


Distance from station: WSW 34mi, 55km

Updated Fri Jun 22, 2018 5:54pm EDT

Mostly cloudy

Mostly cloudy

Wind from S

Wind:

S 15 mph , 24 km/h

Temperature: 70°F (21°C)

Dew Point: 57°F (14°C)

Humidity: 64%

Barometer: 30.04 in (1017.3 hPa)

Clouds: Mostly cloudy

Visibility: 10 miles (16 km)

Cloud details: Mostly cloudy 3600 ft


2018/06/22 21:54 KORH 222154Z 17013KT 10SM BKN036 21/14 A3004 RMK AO2 SLP171 T02110139

KMHT - Manchester, NH


Distance from station: NNW 35mi, 57km

Updated Fri Jun 22, 2018 5:53pm EDT

Mostly cloudy

Mostly cloudy

Wind from SE

Wind:

SE 14 mph , 22 km/h

Temperature: 77°F (25°C)

Dew Point: 48°F (9°C)

Humidity: 36%

Barometer: 30.00 in (1015.9 hPa)

Clouds: Mostly cloudy

Visibility: 10 miles (16 km)

Cloud details: Mostly cloudy 25000 ft


2018/06/22 21:53 KMHT 222153Z 14012KT 10SM BKN250 25/09 A3000 RMK AO2 SLP171 T02500094

KGHG - Marshfield, MA


Distance from station: SE 38mi, 60km

Updated Fri Jun 22, 2018 6:15pm EDT

Clear

Clear

Wind from SE

Wind:

SE 7 mph , 11 km/h

Temperature: 68°F (20°C)

Dew Point: 48°F (9°C)

Humidity: 49%

Barometer: 30.05 in (1017.6 hPa)

Clouds: Clear

Visibility: 10 miles (16 km)


2018/06/22 22:15 KGHG 222215Z AUTO 14006KT 10SM CLR 20/09 A3005 RMK AO2

KSFZ - Pawtucket, RI


Distance from station: SSW 39mi, 62km

Updated Fri Jun 22, 2018 5:56pm EDT

Clear

Clear

Wind from varies

Wind:

varies 7 mph , 11 km/h

Temperature: 66°F (19°C)

Dew Point: 59°F (15°C)

Humidity: 78%

Barometer: 30.06 in (1017.9 hPa)

Clouds: Clear

Visibility: 10 miles (16 km)


2018/06/22 21:56 KSFZ 222156Z AUTO VRB06KT 10SM CLR 19/15 A3006 RMK AO2 SLP124 T01940150

KTAN - Taunton, MA


Distance from station: SSE 40mi, 65km

Updated Fri Jun 22, 2018 5:52pm EDT

Clear

Clear

Wind from SSE

Wind:

SSE 7 mph , 11 km/h

Temperature: 70°F (21°C)

Dew Point: 54°F (12°C)

Humidity: 57%

Barometer: 30.05 in (1017.6 hPa)

Clouds: Clear

Visibility: 10 miles (16 km)


2018/06/22 21:52 KTAN 222152Z AUTO 16006KT 10SM CLR 21/12 A3005 RMK AO2 SLP175 T02060122

KPYM - Plymouth, MA


Distance from station: SE 44mi, 72km

Updated Fri Jun 22, 2018 5:52pm EDT

Clear

Clear

Wind from SE

Wind:

SE 8 mph , 13 km/h

Temperature: 70°F (21°C)

Dew Point: 45°F (7°C)

Humidity: 40%

Barometer: 30.06 in (1017.9 hPa)

Clouds: Clear

Visibility: 10 miles (16 km)


2018/06/22 21:52 KPYM 222152Z AUTO 14007KT 10SM CLR 21/07 A3006 RMK AO2 SLP178 T02060072

KAFN - Jaffrey, NH


Distance from station: WNW 46mi, 74km

Updated Fri Jun 22, 2018 5:52pm EDT

Clear

Clear

Wind from S

Wind:

S 7 mph , 11 km/h

Temperature: 75°F (24°C)

Dew Point: 52°F (11°C)

Humidity: 44%

Barometer: 30.03 in (1016.9 hPa)

Clouds: Clear

Visibility: 10 miles (16 km)


2018/06/22 21:52 KAFN 222152Z AUTO 17006KT 10SM CLR 24/11 A3003 RMK AO2 SLP172 T02440111

KPSM - Portsmouth/Pease, NH


Distance from station: NNE 48mi, 78km

Updated Fri Jun 22, 2018 5:56pm EDT

Mostly cloudy

Mostly cloudy

Wind from SE

Wind:

SE 13 mph , 20 km/h

Temperature: 66°F (19°C)

Dew Point: 50°F (10°C)

Humidity: 56%

Barometer: 30.03 in (1016.9 hPa)

Clouds: Mostly cloudy

Visibility: 10 miles (16 km)

Cloud details: Few Clouds 19000 ft
Mostly cloudy 25000 ft


2018/06/22 21:56 KPSM 222156Z 14011KT 10SM FEW190 BKN250 19/10 A3003 RMK AO2A SLP171 T01890102

KPVD - Providence/Green, RI


Distance from station: S 51mi, 82km

Updated Fri Jun 22, 2018 5:51pm EDT

Mostly cloudy

Mostly cloudy

Wind from S

Wind:

S 13 mph , 20 km/h

Temperature: 66°F (19°C)

Dew Point: 52°F (11°C)

Humidity: 60%

Barometer: 30.06 in (1017.9 hPa)

Clouds: Mostly cloudy

Visibility: 10 miles (16 km)

Cloud details: Few Clouds 3400 ft
Few Clouds 13000 ft
Mostly cloudy 25000 ft


2018/06/22 21:51 KPVD 222151Z 17011KT 10SM FEW034 FEW130 BKN250 19/11 A3006 RMK AO2 SLP179 T01940111

KCON - Concord, NH


Distance from station: NNW 54mi, 87km

Updated Fri Jun 22, 2018 5:51pm EDT

Clear

Clear

Wind from SSE

Wind:

SSE 9 mph , 15 km/h

Temperature: 73°F (23°C)

Dew Point: 54°F (12°C)

Humidity: 50%

Barometer: 30.01 in (1016.3 hPa)

Clouds: Clear

Visibility: 10 miles (16 km)


2018/06/22 21:51 KCON 222151Z AUTO 16008KT 10SM CLR 23/12 A3001 RMK AO2 SLP162 T02330117

KEWB - New Bedford, MA


Distance from station: SSE 54mi, 87km

Updated Fri Jun 22, 2018 5:53pm EDT

Clear

Clear

Wind from SSE

Wind:

SSE 9 mph , 15 km/h

Temperature: 66°F (19°C)

Dew Point: 50°F (10°C)

Humidity: 56%

Barometer: 30.05 in (1017.6 hPa)

Clouds: Clear

Visibility: 10 miles (16 km)


2018/06/22 21:53 KEWB 222153Z 15008KT 10SM CLR 19/10 A3005 RMK AO2 SLP176 T01940100

KMWN - Mount Washington, NH


Distance from station: N 126mi, 203km

Updated Fri Jun 22, 2018 5:52pm EDT

Mostly cloudy

Mostly cloudy

Wind from W

Wind:

W 18 mph , 30 km/h

Temperature: 54°F (12°C)

Dew Point: 37°F (3°C)

Humidity: 54%

Clouds: Mostly cloudy

Visibility: 100 miles (160 km)

Cloud details: Few Clouds 500 ft
Few Clouds 6000 ft
Mostly cloudy 12000 ft
Mostly cloudy 16000 ft
Mostly cloudy 20000 ft


2018/06/22 21:52 KMWN 222152Z 28016KT 100SM FEW005 FEW060 BKN120 BKN160 BKN200 12/03 RMK